sensor_id;sensor_type;location;lat;lon;timestamp;temperature;humidity
65824;SHT31;52585;47.566;19.056;2022-08-21T10:55:36;23.76;71.65
65824;SHT31;52585;47.566;19.056;2022-08-21T10:58:13;23.82;71.78
65824;SHT31;52585;47.566;19.056;2022-08-21T11:00:50;23.88;71.46
65824;SHT31;52585;47.566;19.056;2022-08-21T11:03:33;23.94;71.32
65824;SHT31;52585;47.566;19.056;2022-08-21T11:06:14;24.00;71.22
65824;SHT31;52585;47.566;19.056;2022-08-21T11:08:57;24.07;71.06
65824;SHT31;52585;47.566;19.056;2022-08-21T11:11:36;24.13;70.97
65824;SHT31;52585;47.566;19.056;2022-08-21T11:17:21;24.21;70.48
65824;SHT31;52585;47.566;19.056;2022-08-21T11:22:51;24.28;70.36
65824;SHT31;52585;47.566;19.056;2022-08-21T11:28:08;24.35;70.15
65824;SHT31;52585;47.566;19.056;2022-08-21T11:36:15;24.44;69.85
65824;SHT31;52585;47.566;19.056;2022-08-21T11:41:39;24.47;69.58
65824;SHT31;52585;47.566;19.056;2022-08-21T11:50:22;24.49;69.66
65824;SHT31;52585;47.566;19.056;2022-08-21T11:52:54;24.51;69.71
65824;SHT31;52585;47.566;19.056;2022-08-21T11:55:47;24.51;69.63
65824;SHT31;52585;47.566;19.056;2022-08-21T11:58:44;24.52;69.49
65824;SHT31;52585;47.566;19.056;2022-08-21T12:01:21;24.53;69.17
65824;SHT31;52585;47.566;19.056;2022-08-21T12:03:54;24.55;69.13
65824;SHT31;52585;47.566;19.056;2022-08-21T12:06:32;24.56;69.07
65824;SHT31;52585;47.566;19.056;2022-08-21T12:09:05;24.57;69.00
65824;SHT31;52585;47.566;19.056;2022-08-21T12:11:50;24.58;68.99
65824;SHT31;52585;47.566;19.056;2022-08-21T12:14:34;24.57;68.95
65824;SHT31;52585;47.566;19.056;2022-08-21T12:17:16;24.56;68.85
65824;SHT31;52585;47.566;19.056;2022-08-21T12:19:59;24.58;68.91
65824;SHT31;52585;47.566;19.056;2022-08-21T12:22:39;24.59;69.03
65824;SHT31;52585;47.566;19.056;2022-08-21T12:25:08;24.60;69.16
65824;SHT31;52585;47.566;19.056;2022-08-21T12:27:49;24.60;69.09
65824;SHT31;52585;47.566;19.056;2022-08-21T12:30:20;24.61;69.00
65824;SHT31;52585;47.566;19.056;2022-08-21T12:33:00;24.64;69.00
65824;SHT31;52585;47.566;19.056;2022-08-21T12:35:37;24.64;68.84
65824;SHT31;52585;47.566;19.056;2022-08-21T12:38:18;24.65;68.80
65824;SHT31;52585;47.566;19.056;2022-08-21T12:40:55;24.65;68.75
65824;SHT31;52585;47.566;19.056;2022-08-21T12:43:27;24.65;68.64
65824;SHT31;52585;47.566;19.056;2022-08-21T12:46:00;24.66;68.55
65824;SHT31;52585;47.566;19.056;2022-08-21T12:48:31;24.67;68.56
65824;SHT31;52585;47.566;19.056;2022-08-21T12:53:57;24.68;68.61
65824;SHT31;52585;47.566;19.056;2022-08-21T12:56:26;24.68;68.67
65824;SHT31;52585;47.566;19.056;2022-08-21T12:59:04;24.68;68.59
65824;SHT31;52585;47.566;19.056;2022-08-21T13:01:43;24.70;68.51
65824;SHT31;52585;47.566;19.056;2022-08-21T13:04:17;24.70;68.43
65824;SHT31;52585;47.566;19.056;2022-08-21T13:07:07;24.70;68.34
65824;SHT31;52585;47.566;19.056;2022-08-21T13:12:41;24.71;68.30
65824;SHT31;52585;47.566;19.056;2022-08-21T13:15:07;24.72;68.39
65824;SHT31;52585;47.566;19.056;2022-08-21T13:17:36;24.71;68.94
65824;SHT31;52585;47.566;19.056;2022-08-21T13:20:08;24.70;69.27
65824;SHT31;52585;47.566;19.056;2022-08-21T13:22:47;24.69;69.62
65824;SHT31;52585;47.566;19.056;2022-08-21T13:25:14;24.69;70.15
65824;SHT31;52585;47.566;19.056;2022-08-21T13:27:44;24.69;70.54
65824;SHT31;52585;47.566;19.056;2022-08-21T13:30:26;24.69;70.74
65824;SHT31;52585;47.566;19.056;2022-08-21T13:32:56;24.68;70.65
65824;SHT31;52585;47.566;19.056;2022-08-21T13:35:27;24.65;70.71
65824;SHT31;52585;47.566;19.056;2022-08-21T13:38:01;24.66;70.78
65824;SHT31;52585;47.566;19.056;2022-08-21T13:40:30;24.64;70.83
65824;SHT31;52585;47.566;19.056;2022-08-21T13:43:09;24.63;70.85
65824;SHT31;52585;47.566;19.056;2022-08-21T13:45:39;24.60;70.74
65824;SHT31;52585;47.566;19.056;2022-08-21T13:48:12;24.58;70.65
65824;SHT31;52585;47.566;19.056;2022-08-21T13:50:38;24.56;70.64
65824;SHT31;52585;47.566;19.056;2022-08-21T13:53:07;24.54;70.50
65824;SHT31;52585;47.566;19.056;2022-08-21T13:55:55;24.52;70.67
65824;SHT31;52585;47.566;19.056;2022-08-21T13:58:29;24.49;70.67
65824;SHT31;52585;47.566;19.056;2022-08-21T14:04:18;24.46;71.07
65824;SHT31;52585;47.566;19.056;2022-08-21T14:06:49;24.45;71.20
65824;SHT31;52585;47.566;19.056;2022-08-21T14:11:57;24.44;71.43
65824;SHT31;52585;47.566;19.056;2022-08-21T14:14:37;24.43;71.65
65824;SHT31;52585;47.566;19.056;2022-08-21T14:17:07;24.41;72.03
65824;SHT31;52585;47.566;19.056;2022-08-21T14:19:40;24.41;72.27
65824;SHT31;52585;47.566;19.056;2022-08-21T14:25:11;24.40;72.73
65824;SHT31;52585;47.566;19.056;2022-08-21T14:27:43;24.40;73.02
65824;SHT31;52585;47.566;19.056;2022-08-21T14:30:20;24.39;73.05
65824;SHT31;52585;47.566;19.056;2022-08-21T14:32:52;24.39;72.98
65824;SHT31;52585;47.566;19.056;2022-08-21T14:35:18;24.39;72.81
65824;SHT31;52585;47.566;19.056;2022-08-21T14:37:46;24.40;72.75
65824;SHT31;52585;47.566;19.056;2022-08-21T14:40:15;24.40;72.64
65824;SHT31;52585;47.566;19.056;2022-08-21T14:42:44;24.41;72.52
65824;SHT31;52585;47.566;19.056;2022-08-21T14:47:53;24.40;72.14
65824;SHT31;52585;47.566;19.056;2022-08-21T14:50:20;24.39;71.95
65824;SHT31;52585;47.566;19.056;2022-08-21T14:52:47;24.37;71.72
65824;SHT31;52585;47.566;19.056;2022-08-21T14:55:14;24.36;71.49
65824;SHT31;52585;47.566;19.056;2022-08-21T14:57:43;24.33;71.54
65824;SHT31;52585;47.566;19.056;2022-08-21T15:00:14;24.33;71.22
65824;SHT31;52585;47.566;19.056;2022-08-21T15:02:44;24.30;71.13
65824;SHT31;52585;47.566;19.056;2022-08-21T15:05:10;24.29;71.21
65824;SHT31;52585;47.566;19.056;2022-08-21T15:07:36;24.27;71.25
65824;SHT31;52585;47.566;19.056;2022-08-21T15:10:03;24.27;71.29
65824;SHT31;52585;47.566;19.056;2022-08-21T15:12:30;24.27;71.18
65824;SHT31;52585;47.566;19.056;2022-08-21T15:14:56;24.26;71.20
65824;SHT31;52585;47.566;19.056;2022-08-21T15:17:22;24.26;71.19
65824;SHT31;52585;47.566;19.056;2022-08-21T15:19:47;24.25;71.17
65824;SHT31;52585;47.566;19.056;2022-08-21T15:22:13;24.24;71.19
65824;SHT31;52585;47.566;19.056;2022-08-21T15:24:38;24.23;71.18
65824;SHT31;52585;47.566;19.056;2022-08-21T15:27:05;24.22;71.16
65824;SHT31;52585;47.566;19.056;2022-08-21T15:29:34;24.20;71.14
65824;SHT31;52585;47.566;19.056;2022-08-21T15:32:00;24.19;71.18
65824;SHT31;52585;47.566;19.056;2022-08-21T15:34:42;24.16;71.26
65824;SHT31;52585;47.566;19.056;2022-08-21T15:37:08;24.15;71.33
65824;SHT31;52585;47.566;19.056;2022-08-21T15:39:34;24.14;71.39
65824;SHT31;52585;47.566;19.056;2022-08-21T15:42:01;24.13;71.40
65824;SHT31;52585;47.566;19.056;2022-08-21T15:44:27;24.11;71.33
65824;SHT31;52585;47.566;19.056;2022-08-21T15:46:54;24.12;71.29
65824;SHT31;52585;47.566;19.056;2022-08-21T15:49:21;24.11;71.33
65824;SHT31;52585;47.566;19.056;2022-08-21T15:51:48;24.11;71.37
65824;SHT31;52585;47.566;19.056;2022-08-21T15:54:14;24.11;71.51
65824;SHT31;52585;47.566;19.056;2022-08-21T15:56:40;24.12;71.62
65824;SHT31;52585;47.566;19.056;2022-08-21T15:59:15;24.11;71.82
65824;SHT31;52585;47.566;19.056;2022-08-21T16:01:48;24.10;72.17
65824;SHT31;52585;47.566;19.056;2022-08-21T16:04:23;24.05;72.29
65824;SHT31;52585;47.566;19.056;2022-08-21T16:06:52;24.05;72.81
65824;SHT31;52585;47.566;19.056;2022-08-21T16:09:18;24.07;72.92
65824;SHT31;52585;47.566;19.056;2022-08-21T16:11:44;24.07;73.08
65824;SHT31;52585;47.566;19.056;2022-08-21T16:14:12;24.06;73.27
65824;SHT31;52585;47.566;19.056;2022-08-21T16:16:40;24.05;73.45
65824;SHT31;52585;47.566;19.056;2022-08-21T16:19:06;24.04;73.50
65824;SHT31;52585;47.566;19.056;2022-08-21T16:21:33;24.05;73.69
65824;SHT31;52585;47.566;19.056;2022-08-21T16:23:59;24.03;73.73
65824;SHT31;52585;47.566;19.056;2022-08-21T16:26:25;24.05;73.64
65824;SHT31;52585;47.566;19.056;2022-08-21T16:28:54;24.03;73.65
65824;SHT31;52585;47.566;19.056;2022-08-21T16:31:23;24.02;73.59
65824;SHT31;52585;47.566;19.056;2022-08-21T16:33:51;23.99;73.73
65824;SHT31;52585;47.566;19.056;2022-08-21T16:36:20;23.98;73.81
65824;SHT31;52585;47.566;19.056;2022-08-21T16:38:46;23.96;73.88
65824;SHT31;52585;47.566;19.056;2022-08-21T16:41:13;23.95;73.98
65824;SHT31;52585;47.566;19.056;2022-08-21T16:43:44;23.93;74.02
65824;SHT31;52585;47.566;19.056;2022-08-21T16:46:12;23.91;74.07
65824;SHT31;52585;47.566;19.056;2022-08-21T16:48:40;23.89;74.33
65824;SHT31;52585;47.566;19.056;2022-08-21T16:51:09;23.88;74.44
65824;SHT31;52585;47.566;19.056;2022-08-21T16:53:36;23.86;74.41
65824;SHT31;52585;47.566;19.056;2022-08-21T16:56:02;23.85;74.63
65824;SHT31;52585;47.566;19.056;2022-08-21T16:58:30;23.84;74.69
65824;SHT31;52585;47.566;19.056;2022-08-21T17:00:59;23.83;74.66
65824;SHT31;52585;47.566;19.056;2022-08-21T17:03:32;23.81;74.60
65824;SHT31;52585;47.566;19.056;2022-08-21T17:06:03;23.80;74.67
65824;SHT31;52585;47.566;19.056;2022-08-21T17:08:30;23.78;74.67
65824;SHT31;52585;47.566;19.056;2022-08-21T17:10:58;23.77;74.67
65824;SHT31;52585;47.566;19.056;2022-08-21T17:13:26;23.75;74.77
65824;SHT31;52585;47.566;19.056;2022-08-21T17:15:52;23.74;74.90
65824;SHT31;52585;47.566;19.056;2022-08-21T17:18:19;23.73;74.91
65824;SHT31;52585;47.566;19.056;2022-08-21T17:20:47;23.73;74.92
65824;SHT31;52585;47.566;19.056;2022-08-21T17:23:14;23.71;74.84
65824;SHT31;52585;47.566;19.056;2022-08-21T17:25:43;23.68;74.84
65824;SHT31;52585;47.566;19.056;2022-08-21T17:28:19;23.66;74.93
65824;SHT31;52585;47.566;19.056;2022-08-21T17:30:52;23.65;75.06
65824;SHT31;52585;47.566;19.056;2022-08-21T17:33:20;23.64;75.18
65824;SHT31;52585;47.566;19.056;2022-08-21T17:35:50;23.63;75.20
65824;SHT31;52585;47.566;19.056;2022-08-21T17:38:16;23.62;75.24
65824;SHT31;52585;47.566;19.056;2022-08-21T17:40:42;23.60;75.21
65824;SHT31;52585;47.566;19.056;2022-08-21T17:43:09;23.60;75.32
65824;SHT31;52585;47.566;19.056;2022-08-21T17:45:39;23.59;75.25
65824;SHT31;52585;47.566;19.056;2022-08-21T17:48:06;23.58;75.28
65824;SHT31;52585;47.566;19.056;2022-08-21T17:50:33;23.57;75.33
65824;SHT31;52585;47.566;19.056;2022-08-21T17:53:00;23.57;75.33
65824;SHT31;52585;47.566;19.056;2022-08-21T17:55:26;23.56;75.29
65824;SHT31;52585;47.566;19.056;2022-08-21T17:57:53;23.55;75.25
65824;SHT31;52585;47.566;19.056;2022-08-21T18:00:22;23.54;75.34
65824;SHT31;52585;47.566;19.056;2022-08-21T18:02:56;23.54;75.31
65824;SHT31;52585;47.566;19.056;2022-08-21T18:05:33;23.54;75.30
65824;SHT31;52585;47.566;19.056;2022-08-21T18:08:00;23.52;75.29
65824;SHT31;52585;47.566;19.056;2022-08-21T18:10:26;23.51;75.18
65824;SHT31;52585;47.566;19.056;2022-08-21T18:12:52;23.49;75.17
65824;SHT31;52585;47.566;19.056;2022-08-21T18:15:18;23.48;75.06
65824;SHT31;52585;47.566;19.056;2022-08-21T18:17:46;23.46;75.10
65824;SHT31;52585;47.566;19.056;2022-08-21T18:20:15;23.45;75.19
65824;SHT31;52585;47.566;19.056;2022-08-21T18:22:44;23.42;75.24
65824;SHT31;52585;47.566;19.056;2022-08-21T18:25:11;23.41;75.30
65824;SHT31;52585;47.566;19.056;2022-08-21T18:27:38;23.40;75.31
65824;SHT31;52585;47.566;19.056;2022-08-21T18:30:06;23.38;75.22
65824;SHT31;52585;47.566;19.056;2022-08-21T18:32:34;23.37;75.24
65824;SHT31;52585;47.566;19.056;2022-08-21T18:35:01;23.36;75.26
65824;SHT31;52585;47.566;19.056;2022-08-21T18:37:30;23.35;75.28
65824;SHT31;52585;47.566;19.056;2022-08-21T18:39:56;23.34;75.29
65824;SHT31;52585;47.566;19.056;2022-08-21T18:42:22;23.33;75.18
65824;SHT31;52585;47.566;19.056;2022-08-21T18:44:49;23.31;75.14
65824;SHT31;52585;47.566;19.056;2022-08-21T18:47:23;23.29;75.00
65824;SHT31;52585;47.566;19.056;2022-08-21T18:49:57;23.29;75.10
65824;SHT31;52585;47.566;19.056;2022-08-21T18:52:23;23.28;75.18
65824;SHT31;52585;47.566;19.056;2022-08-21T18:54:49;23.28;75.18
65824;SHT31;52585;47.566;19.056;2022-08-21T18:57:15;23.28;75.24
65824;SHT31;52585;47.566;19.056;2022-08-21T18:59:42;23.28;75.26
65824;SHT31;52585;47.566;19.056;2022-08-21T19:02:08;23.26;75.31
65824;SHT31;52585;47.566;19.056;2022-08-21T19:04:34;23.26;75.30
65824;SHT31;52585;47.566;19.056;2022-08-21T19:07:01;23.25;75.36
65824;SHT31;52585;47.566;19.056;2022-08-21T19:09:28;23.24;75.28
65824;SHT31;52585;47.566;19.056;2022-08-21T19:11:55;23.23;75.28
65824;SHT31;52585;47.566;19.056;2022-08-21T19:14:21;23.21;75.29
65824;SHT31;52585;47.566;19.056;2022-08-21T19:16:46;23.20;75.33
65824;SHT31;52585;47.566;19.056;2022-08-21T19:19:12;23.17;75.24
65824;SHT31;52585;47.566;19.056;2022-08-21T19:21:41;23.13;75.38
65824;SHT31;52585;47.566;19.056;2022-08-21T19:24:07;23.09;75.44
65824;SHT31;52585;47.566;19.056;2022-08-21T19:26:32;23.08;75.43
65824;SHT31;52585;47.566;19.056;2022-08-21T19:29:42;23.10;75.38
65824;SHT31;52585;47.566;19.056;2022-08-21T19:32:07;23.10;75.17
65824;SHT31;52585;47.566;19.056;2022-08-21T19:34:34;23.09;75.31
65824;SHT31;52585;47.566;19.056;2022-08-21T19:37:02;23.09;75.24
65824;SHT31;52585;47.566;19.056;2022-08-21T19:39:29;23.10;75.17
65824;SHT31;52585;47.566;19.056;2022-08-21T19:41:56;23.09;75.13
65824;SHT31;52585;47.566;19.056;2022-08-21T19:44:24;23.08;75.13
65824;SHT31;52585;47.566;19.056;2022-08-21T19:46:53;23.08;75.08
65824;SHT31;52585;47.566;19.056;2022-08-21T19:49:22;23.07;75.07
65824;SHT31;52585;47.566;19.056;2022-08-21T19:51:53;23.08;75.15
65824;SHT31;52585;47.566;19.056;2022-08-21T19:54:23;23.07;75.16
65824;SHT31;52585;47.566;19.056;2022-08-21T19:56:53;23.06;75.19
65824;SHT31;52585;47.566;19.056;2022-08-21T19:59:22;23.05;75.20
65824;SHT31;52585;47.566;19.056;2022-08-21T20:01:51;23.05;75.27
65824;SHT31;52585;47.566;19.056;2022-08-21T20:04:17;23.03;75.24
65824;SHT31;52585;47.566;19.056;2022-08-21T20:06:43;23.02;75.22
65824;SHT31;52585;47.566;19.056;2022-08-21T20:09:08;23.01;75.15
65824;SHT31;52585;47.566;19.056;2022-08-21T20:14:02;22.98;75.12
65824;SHT31;52585;47.566;19.056;2022-08-21T20:16:29;22.96;75.17
65824;SHT31;52585;47.566;19.056;2022-08-21T20:18:55;22.94;75.13
65824;SHT31;52585;47.566;19.056;2022-08-21T20:21:22;22.94;75.15
65824;SHT31;52585;47.566;19.056;2022-08-21T20:23:47;22.92;75.11
65824;SHT31;52585;47.566;19.056;2022-08-21T20:26:13;22.91;75.06
65824;SHT31;52585;47.566;19.056;2022-08-21T20:28:38;22.90;75.03
65824;SHT31;52585;47.566;19.056;2022-08-21T20:31:05;22.90;74.96
65824;SHT31;52585;47.566;19.056;2022-08-21T20:33:31;22.89;74.97
65824;SHT31;52585;47.566;19.056;2022-08-21T20:35:56;22.89;74.91
65824;SHT31;52585;47.566;19.056;2022-08-21T20:38:22;22.88;74.87
65824;SHT31;52585;47.566;19.056;2022-08-21T20:40:50;22.86;74.78
65824;SHT31;52585;47.566;19.056;2022-08-21T20:43:17;22.84;74.62
65824;SHT31;52585;47.566;19.056;2022-08-21T20:45:44;22.81;74.69
65824;SHT31;52585;47.566;19.056;2022-08-21T20:50:54;22.80;74.61
65824;SHT31;52585;47.566;19.056;2022-08-21T20:56:17;22.76;74.53
65824;SHT31;52585;47.566;19.056;2022-08-21T20:59:00;22.74;74.59
65824;SHT31;52585;47.566;19.056;2022-08-21T21:01:43;22.72;74.60
65824;SHT31;52585;47.566;19.056;2022-08-21T21:04:36;22.69;74.57
65824;SHT31;52585;47.566;19.056;2022-08-21T21:07:09;22.67;74.59
65824;SHT31;52585;47.566;19.056;2022-08-21T21:09:44;22.69;74.57
65824;SHT31;52585;47.566;19.056;2022-08-21T21:12:16;22.66;74.46
65824;SHT31;52585;47.566;19.056;2022-08-21T21:14:57;22.63;74.49
65824;SHT31;52585;47.566;19.056;2022-08-21T21:17:41;22.61;74.48
65824;SHT31;52585;47.566;19.056;2022-08-21T21:20:18;22.61;74.57
65824;SHT31;52585;47.566;19.056;2022-08-21T21:22:56;22.61;74.56
65824;SHT31;52585;47.566;19.056;2022-08-21T21:25:50;22.62;74.45
65824;SHT31;52585;47.566;19.056;2022-08-21T21:31:21;22.60;74.31
65824;SHT31;52585;47.566;19.056;2022-08-21T21:33:51;22.59;74.20
65824;SHT31;52585;47.566;19.056;2022-08-21T21:45:27;22.50;74.34
65824;SHT31;52585;47.566;19.056;2022-08-21T21:48:22;22.49;74.37
65824;SHT31;52585;47.566;19.056;2022-08-21T21:50:57;22.49;74.39
65824;SHT31;52585;47.566;19.056;2022-08-21T22:00:13;22.45;74.25
65824;SHT31;52585;47.566;19.056;2022-08-21T22:02:45;22.43;74.26
65824;SHT31;52585;47.566;19.056;2022-08-21T22:05:36;22.40;74.13
65824;SHT31;52585;47.566;19.056;2022-08-21T22:08:24;22.39;74.24
65824;SHT31;52585;47.566;19.056;2022-08-21T22:11:30;22.37;74.36
65824;SHT31;52585;47.566;19.056;2022-08-21T22:14:36;22.35;74.27
65824;SHT31;52585;47.566;19.056;2022-08-21T22:17:12;22.35;74.32
65824;SHT31;52585;47.566;19.056;2022-08-21T22:20:22;22.33;74.18
65824;SHT31;52585;47.566;19.056;2022-08-21T22:22:56;22.32;74.18
65824;SHT31;52585;47.566;19.056;2022-08-21T22:25:25;22.32;74.14
65824;SHT31;52585;47.566;19.056;2022-08-21T22:28:05;22.31;74.11
65824;SHT31;52585;47.566;19.056;2022-08-21T22:33:14;22.28;73.98
65824;SHT31;52585;47.566;19.056;2022-08-21T22:35:44;22.27;74.06
65824;SHT31;52585;47.566;19.056;2022-08-21T22:38:16;22.28;74.09
65824;SHT31;52585;47.566;19.056;2022-08-21T22:40:52;22.27;74.20
65824;SHT31;52585;47.566;19.056;2022-08-21T22:43:53;22.27;74.40
65824;SHT31;52585;47.566;19.056;2022-08-21T22:49:31;22.26;74.37
65824;SHT31;52585;47.566;19.056;2022-08-21T22:52:10;22.25;74.34
65824;SHT31;52585;47.566;19.056;2022-08-21T22:54:59;22.24;74.28
65824;SHT31;52585;47.566;19.056;2022-08-21T22:57:41;22.24;74.22
65824;SHT31;52585;47.566;19.056;2022-08-21T23:00:11;22.21;74.19
65824;SHT31;52585;47.566;19.056;2022-08-21T23:02:58;22.18;74.27
65824;SHT31;52585;47.566;19.056;2022-08-21T23:07:54;22.17;74.37
65824;SHT31;52585;47.566;19.056;2022-08-21T23:10:29;22.17;74.35
65824;SHT31;52585;47.566;19.056;2022-08-21T23:13:13;22.17;74.39
65824;SHT31;52585;47.566;19.056;2022-08-21T23:42:21;22.06;74.35
65824;SHT31;52585;47.566;19.056;2022-08-21T23:45:35;22.06;74.32
65824;SHT31;52585;47.566;19.056;2022-08-21T23:54:16;22.05;74.07
